Time;durP1;ratioP1;P1;durP2;ratioP2;P2;SDS_P1;SDS_P2;PMS_P1;PMS_P2;Temp;Humidity;BMP_temperature;BMP_pressure;BME280_temperature;BME280_humidity;BME280_pressure;Samples;Min_cycle;Max_cycle;Signal;HPM_P1;HPM_P2
2022/04/05 00:01:23;;;;;;;37.92;20.15;;;;;;;;;;5130964;27;20038;-43
2022/04/05 00:03:51;;;;;;;36.38;19.23;;;;;;;;;;5128294;27;20030;-41
2022/04/05 00:06:17;;;;;;;33.35;19.25;;;;;;;;;;5130965;27;20138;-43
2022/04/05 00:08:43;;;;;;;41.35;22.23;;;;;;;;;;5107807;27;20059;-41
2022/04/05 00:11:12;;;;;;;31.20;16.58;;;;;;;;;;5110818;28;20035;-44
2022/04/05 00:13:38;;;;;;;34.00;18.80;;;;;;;;;;5121138;27;20377;-44
2022/04/05 00:16:04;;;;;;;42.03;22.10;;;;;;;;;;5130504;27;20034;-43
2022/04/05 00:18:31;;;;;;;33.28;18.98;;;;;;;;;;5130341;27;20466;-43
2022/04/05 00:20:59;;;;;;;41.72;21.77;;;;;;;;;;5129431;27;20062;-44
2022/04/05 00:23:28;;;;;;;36.25;20.40;;;;;;;;;;5127067;27;20023;-43
2022/04/05 00:25:54;;;;;;;37.70;19.00;;;;;;;;;;5128132;27;20026;-42
2022/04/05 00:28:20;;;;;;;32.42;17.90;;;;;;;;;;5126294;27;20031;-48
2022/04/05 00:30:48;;;;;;;35.28;19.75;;;;;;;;;;5130612;27;20023;-43
2022/04/05 00:33:14;;;;;;;37.58;17.42;;;;;;;;;;5120342;27;20063;-44
2022/04/05 00:35:41;;;;;;;33.03;19.10;;;;;;;;;;5120575;27;20015;-44
2022/04/05 00:38:08;;;;;;;39.13;20.63;;;;;;;;;;5129961;27;20083;-44
2022/04/05 00:40:35;;;;;;;28.92;16.67;;;;;;;;;;5111298;27;20054;-49
2022/04/05 00:43:03;;;;;;;31.98;17.40;;;;;;;;;;5100395;27;20126;-44
2022/04/05 00:45:30;;;;;;;32.13;17.08;;;;;;;;;;5119914;27;20103;-41
2022/04/05 00:47:56;;;;;;;31.85;17.85;;;;;;;;;;5121417;27;20023;-45
2022/04/05 00:50:23;;;;;;;33.80;18.27;;;;;;;;;;5117310;27;20127;-45
2022/04/05 00:52:49;;;;;;;29.55;17.92;;;;;;;;;;5121876;27;20032;-45
2022/04/05 00:55:22;;;;;;;32.20;17.42;;;;;;;;;;5115316;27;20044;-43
2022/04/05 00:57:49;;;;;;;36.88;18.92;;;;;;;;;;5111675;28;20067;-48
2022/04/05 01:00:16;;;;;;;36.00;20.13;;;;;;;;;;5127380;28;20026;-47
2022/04/05 01:02:44;;;;;;;35.50;19.15;;;;;;;;;;5116844;28;20243;-42
2022/04/05 01:05:10;;;;;;;29.65;17.08;;;;;;;;;;5122932;28;20045;-48
2022/04/05 01:07:40;;;;;;;47.28;23.85;;;;;;;;;;5116184;28;20035;-44
2022/04/05 01:10:06;;;;;;;39.70;20.73;;;;;;;;;;5120943;28;20095;-47
2022/04/05 01:12:33;;;;;;;31.42;18.42;;;;;;;;;;5116502;28;20146;-46
2022/04/05 01:14:59;;;;;;;30.08;16.45;;;;;;;;;;5120566;28;20016;-44
2022/04/05 01:17:26;;;;;;;29.63;17.25;;;;;;;;;;5113930;28;20028;-45
2022/04/05 01:19:52;;;;;;;31.35;17.08;;;;;;;;;;5130074;28;20027;-43
2022/04/05 01:22:18;;;;;;;27.52;16.35;;;;;;;;;;5125995;28;20032;-42
2022/04/05 01:24:44;;;;;;;36.97;19.45;;;;;;;;;;5122814;28;20019;-44
2022/04/05 01:27:17;;;;;;;29.98;15.98;;;;;;;;;;5129204;28;20019;-42
2022/04/05 01:29:46;;;;;;;29.38;17.08;;;;;;;;;;5122972;28;20020;-45
2022/04/05 01:32:12;;;;;;;30.15;16.48;;;;;;;;;;5116584;27;20456;-42
2022/04/05 01:34:39;;;;;;;28.02;15.75;;;;;;;;;;5122686;27;20030;-40
2022/04/05 01:37:06;;;;;;;30.63;17.77;;;;;;;;;;5133975;27;20110;-44
2022/04/05 01:39:34;;;;;;;27.75;15.13;;;;;;;;;;5115490;27;20039;-44
2022/04/05 01:42:01;;;;;;;26.80;15.75;;;;;;;;;;5120624;27;20489;-43
2022/04/05 01:44:28;;;;;;;31.35;16.95;;;;;;;;;;5137160;27;20094;-48
2022/04/05 01:46:56;;;;;;;35.17;18.65;;;;;;;;;;5137740;27;20080;-47
2022/04/05 01:49:22;;;;;;;30.73;17.58;;;;;;;;;;5137706;27;20031;-45
2022/04/05 01:51:48;;;;;;;35.25;19.90;;;;;;;;;;5137531;27;20129;-46
2022/04/05 01:54:15;;;;;;;36.92;20.23;;;;;;;;;;5137733;27;20091;-47
2022/04/05 01:56:42;;;;;;;33.10;17.85;;;;;;;;;;5137589;27;20029;-47
2022/04/05 01:59:09;;;;;;;30.15;17.52;;;;;;;;;;5137648;27;20054;-46
2022/04/05 02:01:35;;;;;;;27.27;15.93;;;;;;;;;;5137613;27;20498;-47
2022/04/05 02:04:01;;;;;;;38.95;20.85;;;;;;;;;;5137596;27;20113;-47
2022/04/05 02:06:27;;;;;;;36.55;19.38;;;;;;;;;;5137571;27;20027;-46
2022/04/05 02:08:54;;;;;;;34.85;20.30;;;;;;;;;;5128964;27;20028;-46
2022/04/05 02:11:20;;;;;;;32.97;18.83;;;;;;;;;;5097235;28;20441;-45
2022/04/05 02:13:46;;;;;;;33.40;17.52;;;;;;;;;;5096214;28;20529;-47
2022/04/05 02:16:12;;;;;;;33.90;18.80;;;;;;;;;;5096533;28;20106;-46
2022/04/05 02:18:38;;;;;;;48.20;25.02;;;;;;;;;;5096224;28;20020;-49
2022/04/05 02:21:05;;;;;;;44.88;23.58;;;;;;;;;;5095985;28;20044;-47
2022/04/05 02:23:31;;;;;;;33.38;18.00;;;;;;;;;;5096230;28;20091;-47
2022/04/05 02:25:58;;;;;;;39.58;21.85;;;;;;;;;;5095919;28;20024;-46
2022/04/05 02:28:24;;;;;;;35.60;20.55;;;;;;;;;;5096165;28;20027;-44
2022/04/05 02:30:50;;;;;;;33.55;19.42;;;;;;;;;;5096357;28;20349;-46
2022/04/05 02:33:16;;;;;;;37.15;19.50;;;;;;;;;;5096070;28;20024;-45
2022/04/05 02:35:43;;;;;;;32.30;19.23;;;;;;;;;;5095962;28;20028;-45
2022/04/05 02:38:10;;;;;;;36.88;19.75;;;;;;;;;;5095900;28;20020;-44
2022/04/05 02:40:36;;;;;;;38.67;21.92;;;;;;;;;;5094235;28;20507;-40
2022/04/05 02:43:03;;;;;;;69.68;32.00;;;;;;;;;;5095328;28;20110;-44
2022/04/05 02:45:30;;;;;;;80.20;33.88;;;;;;;;;;5095864;28;20395;-45
2022/04/05 02:47:56;;;;;;;69.15;31.23;;;;;;;;;;5095494;28;20024;-47
2022/04/05 02:50:25;;;;;;;131.68;48.78;;;;;;;;;;5103141;28;20217;-45
2022/04/05 02:52:52;;;;;;;88.88;36.38;;;;;;;;;;5116339;28;20055;-47
2022/04/05 02:55:18;;;;;;;102.35;42.05;;;;;;;;;;5116072;28;20035;-47
2022/04/05 02:57:45;;;;;;;106.90;44.53;;;;;;;;;;5115854;28;20020;-47
2022/04/05 03:00:13;;;;;;;113.45;46.33;;;;;;;;;;5116043;28;20024;-47
2022/04/05 03:02:41;;;;;;;153.48;56.05;;;;;;;;;;5115795;28;20463;-45
2022/04/05 03:05:10;;;;;;;148.45;56.85;;;;;;;;;;5115802;28;20064;-47
2022/04/05 03:07:37;;;;;;;146.63;57.45;;;;;;;;;;5115744;28;20388;-45
2022/04/05 03:10:10;;;;;;;143.07;54.42;;;;;;;;;;5115539;28;20055;-45
2022/04/05 03:12:36;;;;;;;156.85;57.90;;;;;;;;;;5115674;28;20027;-46
2022/04/05 03:15:06;;;;;;;165.57;61.67;;;;;;;;;;5115864;28;20103;-47
2022/04/05 03:17:32;;;;;;;153.82;61.85;;;;;;;;;;5115390;28;20019;-47
2022/04/05 03:20:02;;;;;;;149.38;56.95;;;;;;;;;;5115317;28;20437;-46
2022/04/05 03:22:28;;;;;;;161.38;58.95;;;;;;;;;;5115442;28;20512;-46
2022/04/05 03:24:54;;;;;;;157.27;59.45;;;;;;;;;;5115194;28;20026;-48
2022/04/05 03:27:20;;;;;;;131.55;53.38;;;;;;;;;;5115212;28;20031;-48
2022/04/05 03:29:46;;;;;;;121.15;47.70;;;;;;;;;;5115402;28;20019;-46
2022/04/05 03:32:12;;;;;;;114.13;46.30;;;;;;;;;;5115104;28;20529;-47
2022/04/05 03:34:38;;;;;;;94.43;40.22;;;;;;;;;;5115461;28;20145;-46
2022/04/05 03:37:05;;;;;;;101.38;40.78;;;;;;;;;;5114990;28;20107;-43
2022/04/05 03:39:31;;;;;;;86.85;37.55;;;;;;;;;;5115049;28;20080;-48
2022/04/05 03:41:58;;;;;;;77.97;32.00;;;;;;;;;;5115136;28;20031;-46
2022/04/05 03:44:24;;;;;;;68.03;30.17;;;;;;;;;;5115108;28;20019;-47
2022/04/05 03:46:51;;;;;;;65.30;29.33;;;;;;;;;;5115007;28;20020;-48
2022/04/05 03:49:17;;;;;;;74.25;31.23;;;;;;;;;;5114935;28;20391;-47
2022/04/05 03:51:43;;;;;;;70.28;30.70;;;;;;;;;;5114734;28;20067;-47
2022/04/05 03:54:09;;;;;;;77.63;33.45;;;;;;;;;;5114109;28;20030;-47
2022/04/05 03:56:35;;;;;;;87.75;36.42;;;;;;;;;;5114644;28;20429;-48
2022/04/05 03:59:02;;;;;;;90.78;36.38;;;;;;;;;;5114739;28;20015;-46
2022/04/05 04:01:30;;;;;;;90.20;36.97;;;;;;;;;;5114675;28;20038;-47
2022/04/05 04:03:56;;;;;;;72.65;32.10;;;;;;;;;;5114826;28;20026;-48
2022/04/05 04:06:22;;;;;;;70.40;30.17;;;;;;;;;;5114669;28;20032;-49
2022/04/05 04:08:48;;;;;;;71.68;31.27;;;;;;;;;;5114354;28;20032;-44
2022/04/05 04:11:14;;;;;;;60.92;28.90;;;;;;;;;;5114530;28;20076;-46
2022/04/05 04:13:41;;;;;;;57.05;24.38;;;;;;;;;;5114386;28;20510;-46
2022/04/05 04:16:07;;;;;;;45.38;22.75;;;;;;;;;;5114605;28;20019;-46
2022/04/05 04:18:33;;;;;;;34.70;19.05;;;;;;;;;;5114180;28;20468;-43
2022/04/05 04:20:59;;;;;;;40.78;19.70;;;;;;;;;;5114159;28;20040;-47
2022/04/05 04:23:25;;;;;;;37.13;19.52;;;;;;;;;;5114375;28;20023;-49
2022/04/05 04:25:51;;;;;;;35.45;18.75;;;;;;;;;;5114165;28;20471;-45
2022/04/05 04:28:17;;;;;;;33.45;16.40;;;;;;;;;;5114367;28;20040;-47
2022/04/05 04:30:43;;;;;;;30.90;17.48;;;;;;;;;;5114250;28;20011;-44
2022/04/05 04:33:09;;;;;;;31.95;18.00;;;;;;;;;;5114121;28;20102;-45
2022/04/05 04:35:38;;;;;;;28.05;16.05;;;;;;;;;;5113958;28;20020;-46
2022/04/05 04:38:06;;;;;;;25.73;15.48;;;;;;;;;;5114048;28;20434;-47
2022/04/05 04:40:32;;;;;;;31.75;15.93;;;;;;;;;;5113856;28;20076;-44
2022/04/05 04:42:58;;;;;;;28.77;15.13;;;;;;;;;;5114174;28;20074;-47
2022/04/05 04:45:27;;;;;;;31.83;15.75;;;;;;;;;;5113892;28;20483;-44
2022/04/05 04:47:53;;;;;;;26.70;14.82;;;;;;;;;;5113796;28;20035;-42
2022/04/05 04:50:19;;;;;;;28.55;15.13;;;;;;;;;;5113846;28;20039;-46
2022/04/05 04:52:45;;;;;;;31.58;17.15;;;;;;;;;;5113810;28;20460;-45
2022/04/05 04:55:11;;;;;;;44.85;22.85;;;;;;;;;;5113740;28;20038;-46
2022/04/05 04:57:38;;;;;;;66.20;34.05;;;;;;;;;;5113774;28;20050;-47
2022/04/05 05:00:05;;;;;;;58.45;30.85;;;;;;;;;;5113805;28;20031;-45
2022/04/05 05:02:31;;;;;;;51.40;27.45;;;;;;;;;;5113992;28;20058;-43
2022/04/05 05:04:57;;;;;;;37.45;21.90;;;;;;;;;;5113802;28;20031;-45
2022/04/05 05:07:23;;;;;;;52.70;26.70;;;;;;;;;;5111520;28;20043;-45
2022/04/05 05:09:49;;;;;;;61.65;31.00;;;;;;;;;;5107544;28;20028;-44
2022/04/05 05:12:16;;;;;;;71.90;36.03;;;;;;;;;;5111048;28;20022;-41
2022/04/05 05:14:42;;;;;;;71.65;37.33;;;;;;;;;;5110045;28;20024;-46
2022/04/05 05:17:08;;;;;;;65.53;32.25;;;;;;;;;;5111623;28;20023;-45
2022/04/05 05:19:34;;;;;;;55.92;26.20;;;;;;;;;;5109232;28;20151;-45
2022/04/05 05:22:00;;;;;;;40.97;23.70;;;;;;;;;;5112324;28;20066;-45
2022/04/05 05:24:26;;;;;;;42.28;23.77;;;;;;;;;;5091087;28;20515;-45
2022/04/05 05:26:52;;;;;;;31.95;19.05;;;;;;;;;;5110297;28;20475;-49
2022/04/05 05:29:18;;;;;;;27.95;17.77;;;;;;;;;;5111916;28;20016;-46
2022/04/05 05:31:44;;;;;;;28.73;17.10;;;;;;;;;;5111384;28;20468;-44
2022/04/05 05:34:11;;;;;;;25.13;15.45;;;;;;;;;;5112391;28;20024;-47
2022/04/05 05:36:37;;;;;;;26.20;15.82;;;;;;;;;;5112124;28;20100;-46
2022/04/05 05:39:03;;;;;;;24.75;16.30;;;;;;;;;;5109142;28;20028;-44
2022/04/05 05:41:30;;;;;;;24.27;15.82;;;;;;;;;;5109907;28;20059;-41
2022/04/05 05:43:56;;;;;;;22.75;15.90;;;;;;;;;;5111658;28;20466;-45
2022/04/05 05:46:22;;;;;;;21.88;14.35;;;;;;;;;;5111528;28;20023;-42
2022/04/05 05:48:48;;;;;;;26.55;16.52;;;;;;;;;;5109353;28;20037;-47
2022/04/05 05:51:14;;;;;;;24.83;15.30;;;;;;;;;;5113094;28;20124;-44
2022/04/05 05:53:40;;;;;;;27.83;14.70;;;;;;;;;;5116168;28;20012;-42
2022/04/05 05:56:06;;;;;;;25.65;15.90;;;;;;;;;;5116067;28;20038;-46
2022/04/05 05:58:32;;;;;;;24.52;15.30;;;;;;;;;;5115861;28;20073;-43
2022/04/05 06:00:59;;;;;;;25.98;15.75;;;;;;;;;;5115868;28;20031;-42
2022/04/05 06:03:25;;;;;;;26.55;15.02;;;;;;;;;;5116085;28;20015;-45
2022/04/05 06:05:51;;;;;;;25.10;15.07;;;;;;;;;;5116033;28;20020;-45
2022/04/05 06:08:17;;;;;;;24.67;15.57;;;;;;;;;;5116005;28;20073;-43
2022/04/05 06:10:43;;;;;;;25.73;15.27;;;;;;;;;;5115226;28;20394;-42
2022/04/05 06:13:09;;;;;;;20.92;13.48;;;;;;;;;;5115984;27;20028;-48
2022/04/05 06:15:36;;;;;;;25.00;14.15;;;;;;;;;;5115688;28;20436;-43
2022/04/05 06:18:03;;;;;;;27.40;13.65;;;;;;;;;;5114611;28;20027;-41
2022/04/05 06:20:30;;;;;;;22.17;12.82;;;;;;;;;;5115620;28;20486;-48
2022/04/05 06:22:58;;;;;;;23.80;13.48;;;;;;;;;;5116305;28;20467;-47
2022/04/05 06:25:27;;;;;;;22.77;13.10;;;;;;;;;;5116594;28;20020;-45
2022/04/05 06:27:53;;;;;;;31.02;14.15;;;;;;;;;;5116414;28;20567;-43
2022/04/05 06:30:19;;;;;;;19.98;12.52;;;;;;;;;;5116677;28;20020;-44
2022/04/05 06:32:47;;;;;;;20.33;12.10;;;;;;;;;;5116590;28;20047;-47
2022/04/05 06:35:13;;;;;;;19.45;12.07;;;;;;;;;;5116473;28;20027;-48
2022/04/05 06:37:43;;;;;;;21.08;12.93;;;;;;;;;;5116301;28;20015;-50
2022/04/05 06:40:09;;;;;;;21.48;12.63;;;;;;;;;;5116193;28;20088;-49
2022/04/05 06:42:41;;;;;;;19.90;12.65;;;;;;;;;;5116257;28;20063;-50
2022/04/05 06:45:07;;;;;;;;;;;;;;;;;;5115717;28;20434;-44
2022/04/05 06:47:33;;;;;;;17.95;10.70;;;;;;;;;;5114776;28;20010;-49
2022/04/05 06:49:59;;;;;;;16.95;9.90;;;;;;;;;;5110112;28;20040;-48
2022/04/05 06:52:25;;;;;;;14.45;9.90;;;;;;;;;;5094906;28;20023;-47
2022/04/05 06:54:51;;;;;;;15.32;10.35;;;;;;;;;;5095085;28;20073;-44
2022/04/05 06:57:17;;;;;;;15.38;9.48;;;;;;;;;;5095238;28;20372;-45
2022/04/05 06:59:43;;;;;;;32.10;15.60;;;;;;;;;;5094977;28;20460;-46
2022/04/05 07:02:11;;;;;;;29.80;16.38;;;;;;;;;;5094786;28;20032;-44
2022/04/05 07:04:37;;;;;;;22.50;12.48;;;;;;;;;;5094729;28;20493;-46
2022/04/05 07:07:03;;;;;;;28.05;15.55;;;;;;;;;;5094437;28;20026;-46
2022/04/05 07:09:30;;;;;;;27.67;14.93;;;;;;;;;;5094317;28;20020;-46
2022/04/05 07:11:56;;;;;;;13.77;7.82;;;;;;;;;;5094352;28;20027;-46
2022/04/05 07:14:22;;;;;;;15.18;8.38;;;;;;;;;;5094165;28;20016;-46
2022/04/05 07:16:48;;;;;;;13.95;6.63;;;;;;;;;;5094060;28;20051;-46
2022/04/05 07:19:14;;;;;;;10.70;6.97;;;;;;;;;;5094268;28;20030;-47
2022/04/05 07:21:40;;;;;;;15.48;9.05;;;;;;;;;;5094112;28;20028;-47
2022/04/05 07:24:06;;;;;;;11.35;6.20;;;;;;;;;;5091264;28;20012;-47
2022/04/05 07:26:32;;;;;;;15.02;7.57;;;;;;;;;;5094282;28;20031;-47
2022/04/05 07:29:01;;;;;;;12.55;6.65;;;;;;;;;;5094074;28;20016;-47
2022/04/05 07:31:27;;;;;;;15.80;5.90;;;;;;;;;;5094199;28;20028;-46
2022/04/05 07:33:53;;;;;;;12.18;6.28;;;;;;;;;;5094010;28;20024;-46
2022/04/05 07:36:19;;;;;;;11.13;7.10;;;;;;;;;;5093868;28;20020;-48
2022/04/05 07:38:45;;;;;;;37.83;17.50;;;;;;;;;;5094064;28;20023;-46
2022/04/05 07:41:11;;;;;;;10.27;6.00;;;;;;;;;;5093659;28;20043;-43
2022/04/05 07:43:37;;;;;;;17.25;8.30;;;;;;;;;;5093833;28;20089;-44
2022/04/05 07:46:04;;;;;;;9.50;5.35;;;;;;;;;;5094087;28;20020;-45
2022/04/05 07:48:30;;;;;;;10.48;6.25;;;;;;;;;;5093709;28;20469;-45
2022/04/05 07:50:57;;;;;;;10.07;5.75;;;;;;;;;;5102968;28;20538;-46
2022/04/05 07:53:23;;;;;;;15.10;7.43;;;;;;;;;;5107490;28;20024;-43
2022/04/05 07:55:49;;;;;;;7.43;4.47;;;;;;;;;;5095059;28;20377;-48
2022/04/05 07:58:15;;;;;;;10.70;5.25;;;;;;;;;;5114921;28;20053;-49
2022/04/05 08:00:42;;;;;;;9.48;5.50;;;;;;;;;;5114895;28;20028;-46
2022/04/05 08:03:08;;;;;;;5.47;3.42;;;;;;;;;;5110131;28;20084;-46
2022/04/05 08:05:34;;;;;;;5.35;3.50;;;;;;;;;;5114334;28;20102;-47
2022/04/05 08:08:00;;;;;;;10.13;4.40;;;;;;;;;;5108709;28;20114;-43
2022/04/05 08:10:29;;;;;;;6.38;3.70;;;;;;;;;;5109855;28;20026;-44
2022/04/05 08:12:55;;;;;;;5.15;2.83;;;;;;;;;;5106798;28;20155;-46
2022/04/05 08:15:22;;;;;;;11.40;3.97;;;;;;;;;;5110191;28;20066;-44
2022/04/05 08:17:49;;;;;;;6.88;4.00;;;;;;;;;;5103014;28;20037;-43
2022/04/05 08:20:15;;;;;;;8.15;3.42;;;;;;;;;;5110687;28;20070;-44
2022/04/05 08:22:44;;;;;;;12.65;4.25;;;;;;;;;;5106665;28;20038;-43
2022/04/05 08:25:14;;;;;;;10.27;4.10;;;;;;;;;;5106545;28;20036;-47
2022/04/05 08:27:40;;;;;;;8.25;4.82;;;;;;;;;;5109683;28;20028;-43
2022/04/05 08:30:08;;;;;;;7.32;4.10;;;;;;;;;;5106426;28;20095;-44
2022/04/05 08:32:36;;;;;;;10.90;4.93;;;;;;;;;;5109231;28;20383;-47
2022/04/05 08:35:04;;;;;;;10.68;4.90;;;;;;;;;;5110038;28;20038;-46
2022/04/05 08:37:30;;;;;;;31.08;15.10;;;;;;;;;;5109516;28;20490;-45
2022/04/05 08:39:56;;;;;;;24.98;11.82;;;;;;;;;;5104497;28;20365;-44
2022/04/05 08:42:23;;;;;;;29.58;13.23;;;;;;;;;;5105855;28;20443;-46
2022/04/05 08:44:50;;;;;;;20.48;8.00;;;;;;;;;;5108604;28;20480;-45
2022/04/05 08:47:21;;;;;;;25.77;13.00;;;;;;;;;;5106779;28;20479;-46
2022/04/05 08:49:49;;;;;;;4.95;3.53;;;;;;;;;;5116671;27;20019;-46
2022/04/05 08:52:15;;;;;;;8.27;3.78;;;;;;;;;;5134140;27;20646;-42
2022/04/05 08:54:41;;;;;;;6.00;3.78;;;;;;;;;;5134225;27;20474;-45
2022/04/05 08:57:07;;;;;;;5.65;3.00;;;;;;;;;;5132968;27;20016;-45
2022/04/05 08:59:33;;;;;;;5.05;3.13;;;;;;;;;;5134293;27;20525;-47
2022/04/05 09:01:59;;;;;;;8.02;5.10;;;;;;;;;;5133832;27;20042;-44
2022/04/05 09:04:32;;;;;;;24.05;12.88;;;;;;;;;;5134120;28;20041;-42
2022/04/05 09:07:17;;;;;;;11.65;5.72;;;;;;;;;;5133997;28;20520;-42
2022/04/05 09:09:43;;;;;;;21.65;10.70;;;;;;;;;;5134356;28;20069;-44
2022/04/05 09:12:16;;;;;;;18.15;12.48;;;;;;;;;;5133841;28;20020;-42
2022/04/05 09:14:43;;;;;;;16.35;9.25;;;;;;;;;;5134353;28;20019;-43
2022/04/05 09:17:10;;;;;;;30.02;15.48;;;;;;;;;;5133821;28;20101;-45
2022/04/05 09:19:45;;;;;;;14.63;8.48;;;;;;;;;;5131451;28;20063;-44
2022/04/05 09:22:12;;;;;;;10.27;7.03;;;;;;;;;;5131284;28;20077;-44
2022/04/05 09:24:43;;;;;;;35.20;17.83;;;;;;;;;;5113042;28;20026;-43
2022/04/05 09:27:09;;;;;;;33.10;19.27;;;;;;;;;;5113404;28;20024;-43
2022/04/05 09:29:39;;;;;;;27.90;12.95;;;;;;;;;;5113709;28;20078;-43
2022/04/05 09:32:06;;;;;;;48.42;22.92;;;;;;;;;;5113467;28;20068;-44
2022/04/05 09:34:32;;;;;;;34.05;16.90;;;;;;;;;;5113410;28;20425;-45
2022/04/05 09:37:07;;;;;;;15.13;8.35;;;;;;;;;;5113381;28;20042;-48
2022/04/05 09:39:33;;;;;;;24.77;8.27;;;;;;;;;;5113431;28;20471;-47
2022/04/05 09:42:01;;;;;;;49.60;27.45;;;;;;;;;;5113471;28;20040;-44
2022/04/05 09:44:28;;;;;;;13.57;9.35;;;;;;;;;;5113306;28;20024;-45
2022/04/05 09:47:04;;;;;;;33.53;20.00;;;;;;;;;;5113241;28;20156;-45
2022/04/05 09:49:34;;;;;;;25.38;15.00;;;;;;;;;;5113223;28;20036;-45
2022/04/05 09:52:00;;;;;;;32.88;19.40;;;;;;;;;;5114266;28;20414;-43
2022/04/05 09:54:28;;;;;;;28.42;15.18;;;;;;;;;;5116236;28;20467;-45
2022/04/05 09:57:00;;;;;;;84.90;46.67;;;;;;;;;;5116266;28;20036;-44
2022/04/05 09:59:35;;;;;;;141.55;76.05;;;;;;;;;;5116827;28;20023;-47
2022/04/05 10:02:07;;;;;;;13.68;8.85;;;;;;;;;;5116659;28;20493;-45
2022/04/05 10:04:35;;;;;;;8.45;5.70;;;;;;;;;;5114725;28;20020;-44
2022/04/05 10:07:03;;;;;;;12.02;6.88;;;;;;;;;;5108125;28;20023;-44
2022/04/05 10:09:29;;;;;;;33.35;19.25;;;;;;;;;;5113472;28;20030;-44
2022/04/05 10:11:59;;;;;;;19.52;9.80;;;;;;;;;;5116926;28;20098;-45
2022/04/05 10:14:26;;;;;;;16.58;9.25;;;;;;;;;;5116695;28;20456;-43
2022/04/05 10:16:52;;;;;;;55.53;28.33;;;;;;;;;;5116257;28;20062;-43
2022/04/05 10:19:21;;;;;;;27.85;15.25;;;;;;;;;;5116715;28;20092;-44
2022/04/05 10:21:48;;;;;;;40.97;22.38;;;;;;;;;;5116646;28;20051;-44
2022/04/05 10:24:14;;;;;;;24.20;13.50;;;;;;;;;;5112376;28;20023;-45
2022/04/05 10:26:41;;;;;;;47.00;26.23;;;;;;;;;;5102760;28;20031;-45
2022/04/05 10:29:09;;;;;;;34.80;19.08;;;;;;;;;;5109414;28;20361;-43
2022/04/05 10:31:35;;;;;;;84.30;43.25;;;;;;;;;;5109506;28;20023;-43
2022/04/05 10:34:20;;;;;;;28.33;17.42;;;;;;;;;;5107429;28;20035;-43
2022/04/05 10:37:05;;;;;;;44.08;22.23;;;;;;;;;;5111243;28;20489;-49
2022/04/05 10:39:31;;;;;;;16.58;8.40;;;;;;;;;;5105983;28;20524;-44
2022/04/05 10:42:10;;;;;;;32.25;17.52;;;;;;;;;;5109298;28;20035;-44
2022/04/05 10:44:37;;;;;;;14.93;7.50;;;;;;;;;;5110701;28;20030;-45
2022/04/05 10:47:06;;;;;;;26.40;13.05;;;;;;;;;;5110665;28;20019;-43
2022/04/05 10:49:47;;;;;;;18.35;8.52;;;;;;;;;;5108530;28;20106;-43
2022/04/05 10:52:19;;;;;;;26.75;14.10;;;;;;;;;;5111649;28;20379;-43
2022/04/05 10:54:47;;;;;;;28.08;15.35;;;;;;;;;;5109092;28;20020;-43
2022/04/05 10:57:17;;;;;;;35.53;18.77;;;;;;;;;;5109201;28;20536;-43
2022/04/05 11:00:03;;;;;;;92.50;50.38;;;;;;;;;;5131001;27;20027;-43
2022/04/05 11:02:35;;;;;;;65.00;37.22;;;;;;;;;;5135886;27;20027;-43
2022/04/05 11:05:03;;;;;;;27.20;14.05;;;;;;;;;;5134275;27;20348;-43
2022/04/05 11:07:52;;;;;;;22.40;12.90;;;;;;;;;;5136128;27;20090;-42
2022/04/05 11:10:24;;;;;;;24.05;13.45;;;;;;;;;;5136162;27;20023;-43
2022/04/05 11:12:50;;;;;;;22.00;12.40;;;;;;;;;;5136086;27;20030;-43
2022/04/05 11:15:19;;;;;;;31.98;15.07;;;;;;;;;;5135900;27;20019;-44
2022/04/05 11:17:45;;;;;;;44.97;20.45;;;;;;;;;;5134063;27;20058;-42
2022/04/05 11:20:14;;;;;;;25.25;13.25;;;;;;;;;;5135461;27;20015;-41
2022/04/05 11:22:40;;;;;;;31.20;13.63;;;;;;;;;;5135166;27;20402;-41
2022/04/05 11:25:14;;;;;;;15.88;9.85;;;;;;;;;;5136100;27;20023;-42
2022/04/05 11:27:47;;;;;;;17.70;10.35;;;;;;;;;;5135808;27;20110;-41
2022/04/05 11:30:26;;;;;;;18.98;7.32;;;;;;;;;;5135660;27;20027;-43
2022/04/05 11:33:14;;;;;;;15.60;9.52;;;;;;;;;;5135271;27;20023;-42
2022/04/05 11:35:46;;;;;;;20.08;9.85;;;;;;;;;;5135171;27;20471;-42
2022/04/05 11:38:26;;;;;;;15.43;6.85;;;;;;;;;;5135333;27;20064;-45
2022/04/05 11:40:54;;;;;;;17.30;9.23;;;;;;;;;;5135101;27;20030;-45
2022/04/05 11:43:24;;;;;;;25.55;14.43;;;;;;;;;;5134944;27;20027;-45
2022/04/05 11:45:54;;;;;;;12.77;8.02;;;;;;;;;;5135172;27;20023;-42
2022/04/05 11:48:21;;;;;;;13.88;6.82;;;;;;;;;;5134866;27;20027;-42
2022/04/05 11:50:48;;;;;;;20.70;11.90;;;;;;;;;;5122432;27;20048;-42
2022/04/05 11:53:20;;;;;;;19.65;9.85;;;;;;;;;;5114846;28;20020;-45
2022/04/05 11:56:01;;;;;;;18.95;11.10;;;;;;;;;;5114582;28;20023;-44
2022/04/05 11:58:28;;;;;;;17.38;9.98;;;;;;;;;;5114347;28;20034;-46
2022/04/05 12:00:58;;;;;;;14.70;8.57;;;;;;;;;;5114484;28;20062;-42
2022/04/05 12:03:24;;;;;;;11.98;7.15;;;;;;;;;;5114502;28;20135;-42
2022/04/05 12:05:50;;;;;;;9.38;5.70;;;;;;;;;;5114137;28;20042;-42
2022/04/05 12:08:16;;;;;;;9.23;4.75;;;;;;;;;;5114581;28;20031;-44
2022/04/05 12:10:43;;;;;;;4.90;2.67;;;;;;;;;;5112892;28;20271;-43
2022/04/05 12:13:26;;;;;;;14.98;7.70;;;;;;;;;;5114756;28;20026;-46
2022/04/05 12:15:57;;;;;;;9.90;6.53;;;;;;;;;;5113352;28;20055;-43
2022/04/05 12:18:24;;;;;;;8.70;5.90;;;;;;;;;;5114680;28;20080;-46
2022/04/05 12:20:53;;;;;;;9.00;6.13;;;;;;;;;;5113608;28;20039;-48
2022/04/05 12:23:20;;;;;;;14.48;6.78;;;;;;;;;;5114193;28;20118;-45
2022/04/05 12:26:09;;;;;;;17.17;8.48;;;;;;;;;;5114147;28;20016;-43
2022/04/05 12:28:36;;;;;;;9.23;5.47;;;;;;;;;;5113970;28;20413;-44
2022/04/05 12:31:03;;;;;;;20.75;6.40;;;;;;;;;;5113858;28;20491;-45
2022/04/05 12:33:29;;;;;;;12.77;7.65;;;;;;;;;;5114131;28;20027;-45
2022/04/05 12:35:56;;;;;;;9.75;5.30;;;;;;;;;;5114195;28;20024;-44
2022/04/05 12:38:22;;;;;;;7.60;4.55;;;;;;;;;;5114016;28;20030;-45
2022/04/05 12:40:48;;;;;;;7.72;5.05;;;;;;;;;;5114023;28;20488;-46
2022/04/05 12:43:19;;;;;;;7.90;3.78;;;;;;;;;;5113887;28;20035;-45
2022/04/05 12:45:46;;;;;;;6.95;4.28;;;;;;;;;;5113793;28;20016;-46
2022/04/05 12:48:16;;;;;;;46.33;24.23;;;;;;;;;;5114263;28;20043;-46
2022/04/05 12:50:43;;;;;;;15.63;8.38;;;;;;;;;;5114060;28;20082;-45
2022/04/05 12:53:09;;;;;;;14.00;7.32;;;;;;;;;;5113895;28;20024;-44
2022/04/05 12:55:38;;;;;;;21.10;10.13;;;;;;;;;;5113987;28;20027;-44
2022/04/05 12:58:07;;;;;;;18.20;9.35;;;;;;;;;;5113776;28;20027;-46
2022/04/05 13:00:42;;;;;;;6.50;4.10;;;;;;;;;;5113913;28;20139;-44
2022/04/05 13:03:11;;;;;;;7.88;4.72;;;;;;;;;;5113890;28;20040;-44
2022/04/05 13:08:33;;;;;;;8.45;3.80;;;;;;;;;;5113982;28;20039;-44
2022/04/05 13:10:59;;;;;;;6.43;3.35;;;;;;;;;;5113562;28;20077;-46
2022/04/05 13:13:39;;;;;;;7.22;4.90;;;;;;;;;;5113745;28;20016;-44
2022/04/05 13:16:09;;;;;;;7.72;4.20;;;;;;;;;;5113849;28;20050;-47
2022/04/05 13:18:38;;;;;;;6.32;3.75;;;;;;;;;;5110042;28;20475;-45
2022/04/05 13:21:06;;;;;;;6.43;3.40;;;;;;;;;;5089402;28;20028;-44
2022/04/05 13:23:33;;;;;;;7.15;3.72;;;;;;;;;;5072985;28;20024;-46
2022/04/05 13:26:00;;;;;;;6.85;3.95;;;;;;;;;;5072722;28;20031;-48
2022/04/05 13:28:34;;;;;;;6.68;4.65;;;;;;;;;;5093732;28;20020;-46
2022/04/05 13:31:26;;;;;;;7.30;3.70;;;;;;;;;;5092674;28;20023;-46
2022/04/05 13:33:54;;;;;;;71.80;41.45;;;;;;;;;;5113002;28;20452;-46
2022/04/05 13:36:21;;;;;;;9.65;6.28;;;;;;;;;;5117249;28;20048;-46
2022/04/05 13:38:47;;;;;;;7.10;3.75;;;;;;;;;;5116696;28;20081;-43
2022/04/05 13:41:13;;;;;;;9.10;5.53;;;;;;;;;;5117129;28;20499;-42
2022/04/05 13:43:39;;;;;;;8.85;4.97;;;;;;;;;;5117260;28;20055;-43
2022/04/05 13:46:05;;;;;;;8.68;4.35;;;;;;;;;;5117285;28;20459;-41
2022/04/05 13:48:32;;;;;;;11.63;5.05;;;;;;;;;;5117173;28;20115;-42
2022/04/05 13:50:58;;;;;;;13.43;7.05;;;;;;;;;;5117139;28;20551;-43
2022/04/05 13:53:24;;;;;;;13.27;6.53;;;;;;;;;;5098426;28;20081;-44
2022/04/05 13:55:50;;;;;;;24.73;9.00;;;;;;;;;;5096661;28;20028;-44
2022/04/05 13:58:17;;;;;;;22.30;10.95;;;;;;;;;;5095550;28;20021;-44
2022/04/05 14:00:43;;;;;;;14.55;6.57;;;;;;;;;;5096518;28;20028;-45
2022/04/05 14:03:09;;;;;;;9.18;5.07;;;;;;;;;;5095598;28;20076;-44
2022/04/05 14:05:35;;;;;;;9.38;5.28;;;;;;;;;;5096445;28;20099;-45
2022/04/05 14:08:02;;;;;;;26.08;13.00;;;;;;;;;;5096594;28;20604;-42
2022/04/05 14:10:29;;;;;;;20.88;12.90;;;;;;;;;;5096496;28;20103;-42
2022/04/05 14:12:55;;;;;;;18.52;10.43;;;;;;;;;;5096364;28;20031;-42
2022/04/05 14:15:21;;;;;;;23.55;13.48;;;;;;;;;;5096855;28;20383;-42
2022/04/05 14:17:49;;;;;;;44.05;21.77;;;;;;;;;;5096532;28;20024;-42
2022/04/05 14:20:15;;;;;;;29.52;16.70;;;;;;;;;;5096076;28;20395;-42
2022/04/05 14:22:42;;;;;;;20.48;11.95;;;;;;;;;;5095951;28;20131;-43
2022/04/05 14:25:09;;;;;;;18.70;9.07;;;;;;;;;;5095888;28;20024;-42
2022/04/05 14:27:35;;;;;;;14.70;7.55;;;;;;;;;;5096149;28;20066;-42
2022/04/05 14:30:02;;;;;;;16.38;8.95;;;;;;;;;;5077529;28;20063;-44